Aérodrome :
LOGIN :

S'inscrire | Disclaimer

   EN    FR    IT 

 










Légende :    VFR   VFR Marginal   IFR   IFR Intensif   IFR Très Intensif
Visi : 
Plafond : 
>= 8 km
>= 3000ft
5 à 8 km
1000 à 3000 ft
1500m à 5 km
500 à 1000 ft
800 à 1500m
200 à 500 ft
< 800m
< 200 ft
Symboles :   Orages  Brouillard  Fortes neiges  Fortes précipitations  Vent > 20 kt
SIGMETs :   Divers  Orages  Givrage  Turbulence  Onde Orograph.  Cendres Volcan.






- Altitude de l'aérodrome : 84 ft


LFBC - Cazaux

DERNIER METAR :
  • 061000Z AUTO 00000KT 6000 OVC004 06/06 Q1024 NOSIG

METARs EXPIRÉS :
  • 060930Z AUTO VRB01KT 7000 BKN004 OVC010 05/05 Q1024 NOSIG
  • 060900Z AUTO 14004KT 6000 OVC009 05/05 Q1024 TEMPO 1000 BR BECMG BKN004
  • 060830Z AUTO 14004KT 7000 OVC009 05/05 Q1024 TEMPO 1000 BR BECMG BKN004
  • 060800Z AUTO VRB02KT 9000 FEW002 OVC010 04/04 Q1023
  • 060730Z AUTO 00000KT 8000 BKN002 OVC011 03/03 Q1023 BECMG 0900 FG

TAF TAF LFBC
Valide du 06 à 09h jusqu'au 07 à 09h UTC


060800Z 0609/0709 14003KT 6000 BKN002 BKN010
TEMPO 0609/0610 1000 BR
BECMG 0610/0612 BKN004
BECMG 0612/0614 SCT005
TEMPO 0620/0709 2000 DZ BKN005 BKN030



MET'MAP, la Météo Aéronautique d'un coup d'oeil ! - Copyright ORBIFLY Décembre 2007 - Disclaimer

ORBIFLY MET'MAP TEAM :

Programmation & Développement : Alexandra Zaïnal
Sur une idée originale de : Baudouin d'Aumeries
Assistance à la programmation : Marc-Olivier Méhu
Soutien technique & logistique : Manuel Goepfert

Contact : metmap@orbifly.com




SOURCES & CREDITS :

   NOAA